BAW673 LGTS-EGLL
Flight info
| Callsign | BAW673 |
|---|---|
| Flight time | N/A |
| Altitude | 38000 |
| Route | EDASI N146 BEKVA DCT MAVAR DCT GACMO DCT RASTU DCT ALIVO DCT RIFEN DCT SAFFA DCT ELMUR L613 HOC DCT LUL DCT RLP DCT ROTSI DCT KOTUN DCT NINAL DCT ABNUR DCT DIMAL DCT ALESO |
| Aircraft | A320/M-SDE3FGHIRWY/LB1 |
Departure
| Time | 2026-05-06 16:12 |
|---|---|
| Airport | Thessaloniki Macedonia International Airport (LGTS) |
Arrival
| Time | N/A |
|---|---|
| Airport | London Heathrow Airport (EGLL) |
| Time | Latitude | Longitude | Altitude | Speed | Heading |
|---|---|---|---|---|---|
| 2026-05-06 15:50 | 40.52381 | 22.97571 | 15 ft | 0 kts | 44° |
| 2026-05-06 16:05 | 40.52377 | 22.97567 | 16 ft | 2 kts | 44° |
| 2026-05-06 16:05 | 40.52363 | 22.97549 | 17 ft | 3 kts | 44° |
| 2026-05-06 16:05 | 40.52349 | 22.97531 | 17 ft | 3 kts | 43° |
| 2026-05-06 16:05 | 40.52334 | 22.97513 | 18 ft | 3 kts | 42° |
| 2026-05-06 16:06 | 40.52319 | 22.97495 | 18 ft | 3 kts | 41° |
| 2026-05-06 16:06 | 40.52303 | 22.97478 | 15 ft | 3 kts | 40° |
| 2026-05-06 16:06 | 40.52288 | 22.97461 | 16 ft | 3 kts | 38° |
| 2026-05-06 16:06 | 40.52271 | 22.97445 | 15 ft | 3 kts | 33° |
| 2026-05-06 16:07 | 40.52254 | 22.97432 | 15 ft | 3 kts | 18° |
| 2026-05-06 16:07 | 40.52237 | 22.97428 | 16 ft | 2 kts | 334° |
| 2026-05-06 16:07 | 40.52232 | 22.97431 | 15 ft | 0 kts | 315° |
| 2026-05-06 16:09 | 40.52233 | 22.97431 | 15 ft | 0 kts | 315° |
| 2026-05-06 16:09 | 40.52239 | 22.97422 | 15 ft | 5 kts | 315° |
| 2026-05-06 16:09 | 40.52315 | 22.97322 | 14 ft | 21 kts | 315° |
| 2026-05-06 16:09 | 40.52388 | 22.97179 | 14 ft | 17 kts | 287° |
| 2026-05-06 16:10 | 40.52492 | 22.97116 | 15 ft | 19 kts | 346° |
| 2026-05-06 16:10 | 40.52636 | 22.97071 | 15 ft | 22 kts | 347° |
| 2026-05-06 16:10 | 40.52796 | 22.97021 | 15 ft | 25 kts | 346° |
| 2026-05-06 16:10 | 40.52967 | 22.96964 | 15 ft | 26 kts | 346° |
| 2026-05-06 16:11 | 40.53073 | 22.96861 | 15 ft | 14 kts | 253° |
| 2026-05-06 16:11 | 40.52961 | 22.96785 | 15 ft | 26 kts | 179° |
| 2026-05-06 16:11 | 40.52582 | 22.96903 | 16 ft | 88 kts | 166° |
| 2026-05-06 16:11 | 40.51811 | 22.97148 | 16 ft | 138 kts | 166° |
| 2026-05-06 16:12 | 40.50820 | 22.97463 | 433 ft | 145 kts | 168° |
| 2026-05-06 16:12 | 40.49836 | 22.97747 | 1049 ft | 146 kts | 169° |
| 2026-05-06 16:12 | 40.48801 | 22.98019 | 1397 ft | 162 kts | 168° |
| 2026-05-06 16:12 | 40.47628 | 22.98335 | 1612 ft | 183 kts | 168° |
| 2026-05-06 16:13 | 40.46322 | 22.98698 | 1768 ft | 208 kts | 168° |
| 2026-05-06 16:13 | 40.44818 | 22.99111 | 2092 ft | 233 kts | 168° |
| 2026-05-06 16:13 | 40.43167 | 22.99566 | 2652 ft | 249 kts | 168° |
| 2026-05-06 16:13 | 40.41429 | 23.00046 | 3527 ft | 253 kts | 169° |
| 2026-05-06 16:14 | 40.39716 | 23.00522 | 4417 ft | 257 kts | 169° |
| 2026-05-06 16:14 | 40.37945 | 23.01016 | 5280 ft | 263 kts | 170° |
| 2026-05-06 16:14 | 40.36128 | 23.01523 | 6068 ft | 271 kts | 169° |
| 2026-05-06 16:14 | 40.34249 | 23.01967 | 6852 ft | 277 kts | 175° |
| 2026-05-06 16:15 | 40.32311 | 23.02094 | 7648 ft | 281 kts | 183° |
| 2026-05-06 16:15 | 40.30354 | 23.01874 | 8450 ft | 283 kts | 192° |
| 2026-05-06 16:15 | 40.28428 | 23.01307 | 9265 ft | 286 kts | 200° |
| 2026-05-06 16:15 | 40.26560 | 23.00390 | 10042 ft | 289 kts | 207° |
| 2026-05-06 16:16 | 40.24782 | 22.99128 | 10751 ft | 292 kts | 215° |
| 2026-05-06 16:16 | 40.23143 | 22.97539 | 11451 ft | 295 kts | 223° |
| 2026-05-06 16:16 | 40.21679 | 22.95644 | 12059 ft | 298 kts | 232° |
| 2026-05-06 16:16 | 40.20409 | 22.93408 | 12332 ft | 315 kts | 242° |
| 2026-05-06 16:17 | 40.19547 | 22.90697 | 12581 ft | 331 kts | 257° |